Time;durP1;ratioP1;P1;durP2;ratioP2;P2;SDS_P1;SDS_P2;PMS_P1;PMS_P2;Temp;Humidity;BMP_temperature;BMP_pressure;BME280_temperature;BME280_humidity;BME280_pressure;Samples;Min_cycle;Max_cycle;Signal;HPM_P1;HPM_P2
2022/01/23 00:02:21;;;;;;;21.05;10.77;;;6.10;99.90;;;;;;5055902;28;20086;-54
2022/01/23 00:04:47;;;;;;;24.08;11.73;;;6.10;99.90;;;;;;5037957;28;20095;-50
2022/01/23 00:07:14;;;;;;;22.17;10.30;;;6.10;99.90;;;;;;5055578;28;20079;-50
2022/01/23 00:09:41;;;;;;;22.00;10.45;;;6.10;99.90;;;;;;5055513;28;20466;-54
2022/01/23 00:12:14;;;;;;;25.85;11.60;;;6.10;99.90;;;;;;5055434;28;20024;-49
2022/01/23 00:17:25;;;;;;;20.88;10.32;;;6.10;99.90;;;;;;5055951;28;20039;-51
2022/01/23 00:19:55;;;;;;;28.85;10.88;;;6.00;99.90;;;;;;5037076;28;20036;-48
2022/01/23 00:22:26;;;;;;;23.77;10.50;;;6.10;99.90;;;;;;5055113;28;20027;-52
2022/01/23 00:30:31;;;;;;;17.33;9.27;;;6.00;99.90;;;;;;5054971;28;20114;-51
2022/01/23 00:32:59;;;;;;;16.77;9.50;;;6.00;99.90;;;;;;5053958;28;20052;-51
2022/01/23 00:35:26;;;;;;;27.52;9.98;;;6.00;99.90;;;;;;5054893;28;20017;-51
2022/01/23 00:37:52;;;;;;;20.30;8.70;;;6.00;99.90;;;;;;5055425;28;20033;-52
2022/01/23 00:40:18;;;;;;;23.67;10.00;;;6.00;99.90;;;;;;5093284;22;20064;-74
2022/01/23 00:42:45;;;;;;;23.75;9.38;;;6.00;99.90;;;;;;5076161;28;20362;-74
2022/01/23 00:45:27;;;;;;;20.60;9.48;;;6.00;99.90;;;;;;5076216;28;20362;-74
2022/01/23 00:48:02;;;;;;;22.40;10.00;;;6.00;99.90;;;;;;5076138;28;20059;-74
2022/01/23 00:50:32;;;;;;;20.73;8.90;;;6.00;99.90;;;;;;5075468;28;20074;-74
2022/01/23 00:52:58;;;;;;;18.95;8.48;;;6.00;99.90;;;;;;5075919;28;20039;-74
2022/01/23 00:55:24;;;;;;;21.63;8.68;;;6.00;99.90;;;;;;5076152;28;20020;-74
2022/01/23 00:57:50;;;;;;;15.27;8.45;;;6.00;99.90;;;;;;5078031;28;20029;-74
2022/01/23 01:00:16;;;;;;;16.92;8.20;;;6.10;99.90;;;;;;5077922;28;20025;-74
2022/01/23 01:02:41;;;;;;;15.88;7.63;;;6.00;99.90;;;;;;5078788;28;20037;-74
2022/01/23 01:05:08;;;;;;;17.02;7.38;;;6.00;99.90;;;;;;5084809;28;20037;-74
2022/01/23 01:07:34;;;;;;;15.18;7.70;;;6.10;99.90;;;;;;5086107;28;20025;-74
2022/01/23 01:10:06;;;;;;;15.63;8.07;;;6.10;99.90;;;;;;5058533;28;20024;-75
2022/01/23 01:12:40;;;;;;;15.20;7.93;;;6.10;99.90;;;;;;5075114;28;20470;-74
2022/01/23 01:31:23;;;;;;;17.48;6.40;;;6.00;99.90;;;;;;5076077;28;20055;-74
2022/01/23 01:33:55;;;;;;;11.85;5.82;;;6.00;99.90;;;;;;5055649;28;20158;-74
2022/01/23 01:36:34;;;;;;;;;;;6.00;99.90;;;;;;5074830;28;20382;-74
2022/01/23 01:39:00;;;;;;;15.15;5.65;;;6.00;99.90;;;;;;5073834;28;19912;-73
2022/01/23 01:41:26;;;;;;;13.90;6.40;;;6.00;99.90;;;;;;5077328;28;20043;-73
2022/01/23 01:43:54;;;;;;;16.08;6.43;;;6.10;99.90;;;;;;5078106;28;20099;-73
2022/01/23 01:46:20;;;;;;;10.00;5.32;;;6.00;99.90;;;;;;5073757;28;20477;-74
2022/01/23 01:48:45;;;;;;;13.65;6.00;;;6.00;99.90;;;;;;5073510;28;20017;-73
2022/01/23 01:51:15;;;;;;;14.40;5.53;;;6.00;99.90;;;;;;5073281;28;20020;-74
2022/01/23 01:53:49;;;;;;;10.88;5.00;;;6.00;99.90;;;;;;5073267;28;20070;-73
2022/01/23 01:56:15;;;;;;;11.15;5.95;;;6.00;99.90;;;;;;5073342;28;20074;-73
2022/01/23 02:02:46;;;;;;;13.02;5.55;;;6.00;99.90;;;;;;5074575;28;20138;-74
2022/01/23 02:17:22;;;;;;;15.40;5.90;;;5.90;99.90;;;;;;5073700;28;20107;-74
2022/01/23 02:23:03;;;;;;;12.57;5.47;;;5.80;99.90;;;;;;5073795;28;20044;-74
2022/01/23 02:55:28;;;;;;;10.68;5.25;;;5.90;99.90;;;;;;5073034;28;20379;-74
2022/01/23 02:58:00;;;;;;;10.32;4.95;;;5.90;99.90;;;;;;5073262;28;20028;-75
2022/01/23 03:00:33;;;;;;;11.93;4.55;;;5.90;99.90;;;;;;5054955;28;20107;-74
2022/01/23 03:03:11;;;;;;;10.07;4.80;;;6.00;99.90;;;;;;5074084;28;20032;-74
2022/01/23 03:05:39;;;;;;;7.15;4.35;;;6.00;99.90;;;;;;5073701;28;20079;-74
2022/01/23 03:10:45;;;;;;;9.38;4.20;;;6.00;99.90;;;;;;5075057;28;20024;-74
2022/01/23 03:16:18;;;;;;;10.75;4.28;;;5.90;99.90;;;;;;5073160;28;20082;-74
2022/01/23 03:24:29;;;;;;;10.70;4.07;;;5.90;99.90;;;;;;5080500;28;20097;-73
2022/01/23 03:27:02;;;;;;;9.60;4.38;;;5.80;99.90;;;;;;5065766;28;20024;-74
2022/01/23 03:29:51;;;;;;;8.63;4.47;;;5.80;99.90;;;;;;5087837;28;20072;-74
2022/01/23 03:32:24;;;;;;;7.18;4.10;;;5.90;99.90;;;;;;5083874;28;20040;-74
2022/01/23 03:34:50;;;;;;;7.80;4.03;;;5.90;99.90;;;;;;5058564;28;20028;-75
2022/01/23 03:37:15;;;;;;;9.40;4.35;;;5.90;99.90;;;;;;5076194;28;20035;-74
2022/01/23 03:39:41;;;;;;;12.75;4.40;;;6.00;99.90;;;;;;5058149;28;20477;-74
2022/01/23 03:42:07;;;;;;;10.85;4.80;;;5.90;99.90;;;;;;5076276;28;20462;-74
2022/01/23 03:44:36;;;;;;;15.10;5.60;;;5.90;99.90;;;;;;5075822;28;20043;-74
2022/01/23 03:49:33;;;;;;;8.27;4.75;;;6.00;99.90;;;;;;5075941;28;20024;-74
2022/01/23 03:52:06;;;;;;;10.82;4.32;;;6.00;99.90;;;;;;5076142;28;20493;-74
2022/01/23 03:54:33;;;;;;;16.48;5.00;;;6.00;99.90;;;;;;5057808;28;20028;-75
2022/01/23 03:57:00;;;;;;;8.70;4.10;;;6.00;99.90;;;;;;5075985;28;20024;-74
2022/01/23 03:59:26;;;;;;;10.30;4.03;;;6.00;99.90;;;;;;5075880;28;20021;-74
2022/01/23 04:01:52;;;;;;;10.85;3.65;;;6.10;99.90;;;;;;5075657;28;20052;-74
2022/01/23 04:07:02;;;;;;;9.25;4.55;;;6.00;99.90;;;;;;5075936;28;20038;-74
2022/01/23 04:09:28;;;;;;;8.88;4.32;;;6.00;99.90;;;;;;5075885;28;20020;-74
2022/01/23 04:11:54;;;;;;;11.63;4.05;;;6.00;99.90;;;;;;5075782;28;20119;-75
2022/01/23 04:14:22;;;;;;;11.25;4.30;;;6.10;99.90;;;;;;5075348;28;20043;-75
2022/01/23 04:19:35;;;;;;;8.82;4.43;;;6.00;99.90;;;;;;5075062;28;20020;-75
2022/01/23 04:33:26;;;;;;;19.27;6.03;;;6.10;99.90;;;;;;5075280;28;20051;-74
2022/01/23 05:00:23;;;;;;;17.38;7.43;;;6.10;99.90;;;;;;5074372;28;20031;-75
2022/01/23 05:05:31;;;;;;;17.15;8.18;;;6.00;99.90;;;;;;5074562;28;20017;-74
2022/01/23 05:07:57;;;;;;;15.98;8.40;;;6.00;99.90;;;;;;5074724;28;20021;-74
2022/01/23 05:10:23;;;;;;;19.67;8.10;;;6.00;99.90;;;;;;5074283;28;20099;-74
2022/01/23 05:12:48;;;;;;;18.20;8.70;;;6.00;99.90;;;;;;5074494;28;20032;-74
2022/01/23 05:15:14;;;;;;;22.73;9.90;;;6.10;99.90;;;;;;5074206;28;20517;-74
2022/01/23 05:17:40;;;;;;;20.40;9.07;;;6.00;99.90;;;;;;5074512;28;20032;-76
2022/01/23 05:20:06;;;;;;;18.58;9.65;;;6.10;99.90;;;;;;5074296;28;20393;-75
2022/01/23 05:22:46;;;;;;;22.92;10.80;;;6.10;99.90;;;;;;5074269;28;20060;-75
2022/01/23 05:25:23;;;;;;;18.80;9.35;;;6.00;99.90;;;;;;5074370;28;20021;-74
2022/01/23 05:27:53;;;;;;;24.73;10.10;;;6.10;99.90;;;;;;5061793;28;20020;-74
2022/01/23 05:30:19;;;;;;;18.80;10.10;;;6.10;99.90;;;;;;5077157;28;20028;-74
2022/01/23 05:32:44;;;;;;;24.50;10.43;;;6.10;99.90;;;;;;5073827;28;20105;-74
2022/01/23 05:35:13;;;;;;;22.15;10.77;;;6.10;99.90;;;;;;5073856;28;20025;-74
2022/01/23 05:37:38;;;;;;;24.73;11.13;;;6.10;99.90;;;;;;5073993;28;20039;-74
2022/01/23 05:40:06;;;;;;;26.88;10.18;;;6.10;99.90;;;;;;5074150;28;20032;-73
2022/01/23 05:42:32;;;;;;;23.90;10.10;;;6.10;99.90;;;;;;5073677;28;20024;-74
2022/01/23 05:44:58;;;;;;;18.88;10.35;;;6.10;99.90;;;;;;5073884;28;20027;-74
2022/01/23 05:47:23;;;;;;;23.45;10.05;;;6.10;99.90;;;;;;5073905;28;20044;-74
2022/01/23 05:49:49;;;;;;;22.92;11.13;;;6.10;99.90;;;;;;5074032;28;20107;-74
2022/01/23 05:52:15;;;;;;;23.38;11.38;;;6.10;99.90;;;;;;5056057;28;20040;-74
2022/01/23 05:54:41;;;;;;;18.25;9.23;;;6.10;99.90;;;;;;5076466;28;20040;-74
2022/01/23 05:57:06;;;;;;;23.95;9.40;;;6.10;99.90;;;;;;5082760;28;20031;-73
2022/01/23 05:59:32;;;;;;;24.70;10.35;;;6.10;99.90;;;;;;5081218;28;20025;-73
2022/01/23 06:01:58;;;;;;;21.58;10.38;;;6.10;99.90;;;;;;5084381;28;20095;-73
2022/01/23 06:04:25;;;;;;;22.80;10.13;;;6.10;99.90;;;;;;5079152;28;20046;-73
2022/01/23 06:06:53;;;;;;;29.85;10.68;;;6.10;99.90;;;;;;5073551;28;20063;-74
2022/01/23 06:09:20;;;;;;;22.15;10.88;;;6.10;99.90;;;;;;5073744;28;20028;-75
2022/01/23 06:11:46;;;;;;;21.52;11.30;;;6.10;99.90;;;;;;5076939;28;20020;-74
2022/01/23 06:14:12;;;;;;;24.38;10.50;;;6.10;99.90;;;;;;5077298;28;20112;-74
2022/01/23 06:16:38;;;;;;;22.73;10.13;;;6.10;99.90;;;;;;5074626;28;20075;-74
2022/01/23 06:19:05;;;;;;;23.80;11.43;;;6.10;99.90;;;;;;5073518;28;20021;-74
2022/01/23 06:21:30;;;;;;;31.35;10.63;;;6.10;99.90;;;;;;5073666;28;20016;-74
2022/01/23 06:26:48;;;;;;;19.08;10.43;;;6.10;99.90;;;;;;5073812;28;20119;-74
2022/01/23 06:29:16;;;;;;;17.98;10.07;;;6.20;99.90;;;;;;5055218;28;20085;-73
2022/01/23 06:31:43;;;;;;;22.80;10.15;;;6.10;99.90;;;;;;5073501;28;20116;-74
2022/01/23 06:34:10;;;;;;;27.02;11.20;;;6.10;99.90;;;;;;5073526;28;20024;-74
2022/01/23 06:36:36;;;;;;;25.45;10.63;;;6.10;99.90;;;;;;5073722;28;20073;-74
2022/01/23 06:39:04;;;;;;;25.30;10.35;;;6.10;99.90;;;;;;5087220;22;20031;-50
2022/01/23 06:41:30;;;;;;;23.08;11.20;;;6.20;99.90;;;;;;5071988;28;20170;-51
2022/01/23 06:43:56;;;;;;;22.33;10.95;;;6.20;99.90;;;;;;5072842;28;20104;-49
2022/01/23 06:46:21;;;;;;;22.73;9.65;;;6.20;99.90;;;;;;5072915;28;20496;-50
2022/01/23 06:48:47;;;;;;;21.27;10.02;;;6.20;99.90;;;;;;5072805;28;20474;-50
2022/01/23 06:51:12;;;;;;;22.38;9.52;;;6.20;99.90;;;;;;5073032;28;20060;-50
2022/01/23 06:53:38;;;;;;;16.88;9.07;;;6.20;99.90;;;;;;5072632;28;20024;-52
2022/01/23 06:56:03;;;;;;;18.75;8.68;;;6.20;99.90;;;;;;5076707;28;20025;-53
2022/01/23 06:58:29;;;;;;;21.73;9.68;;;6.30;99.90;;;;;;5076665;28;20024;-49
2022/01/23 07:00:55;;;;;;;19.00;9.38;;;6.30;99.90;;;;;;5076315;28;20020;-50
2022/01/23 07:03:20;;;;;;;15.55;8.57;;;6.30;99.90;;;;;;5076588;28;20051;-50
2022/01/23 07:05:46;;;;;;;19.70;8.65;;;6.30;99.90;;;;;;5076645;28;20025;-51
2022/01/23 07:08:11;;;;;;;18.60;9.13;;;6.20;99.90;;;;;;5076728;28;20074;-49
2022/01/23 07:10:37;;;;;;;15.18;8.43;;;6.30;99.90;;;;;;5058616;28;20378;-51
2022/01/23 07:13:02;;;;;;;17.05;8.82;;;6.20;99.90;;;;;;5076234;28;20064;-49
2022/01/23 07:15:28;;;;;;;18.60;8.52;;;6.20;99.90;;;;;;5076061;28;20036;-52
2022/01/23 07:17:53;;;;;;;20.35;7.88;;;6.30;99.90;;;;;;5076390;28;20032;-49
2022/01/23 07:20:19;;;;;;;22.25;8.32;;;6.30;99.90;;;;;;5076316;28;20021;-50
2022/01/23 07:22:45;;;;;;;18.13;7.95;;;6.30;99.90;;;;;;5075958;28;20405;-50
2022/01/23 07:25:10;;;;;;;16.20;7.50;;;6.30;99.90;;;;;;5075867;28;20032;-48
2022/01/23 07:27:48;;;;;;;21.90;8.65;;;6.30;99.90;;;;;;5075710;28;20027;-49
2022/01/23 07:30:36;;;;;;;18.58;7.28;;;6.40;99.90;;;;;;5075925;28;20028;-51
2022/01/23 07:33:02;;;;;;;16.52;7.07;;;6.40;99.90;;;;;;5075635;28;20497;-50
2022/01/23 07:35:28;;;;;;;12.00;6.63;;;6.40;99.90;;;;;;5076702;28;20024;-50
2022/01/23 07:37:54;;;;;;;19.27;7.47;;;6.40;99.90;;;;;;5075729;28;20043;-52
2022/01/23 07:40:19;;;;;;;14.38;7.45;;;6.40;99.90;;;;;;5076033;28;20429;-51
2022/01/23 07:42:45;;;;;;;11.88;6.65;;;6.40;99.90;;;;;;5075681;28;20102;-50
2022/01/23 07:45:11;;;;;;;13.73;7.43;;;6.40;99.90;;;;;;5075983;28;20025;-49
2022/01/23 07:47:37;;;;;;;16.17;7.32;;;6.40;99.90;;;;;;5075596;28;20477;-50
2022/01/23 07:50:03;;;;;;;20.05;7.43;;;6.40;99.90;;;;;;5075712;28;20123;-52
2022/01/23 07:52:30;;;;;;;15.43;7.15;;;6.30;99.90;;;;;;5075904;28;20028;-48
2022/01/23 07:54:57;;;;;;;16.90;7.38;;;6.40;99.90;;;;;;5075151;28;20481;-48
2022/01/23 07:57:23;;;;;;;18.63;7.70;;;6.40;99.90;;;;;;5075496;28;20475;-49
2022/01/23 07:59:48;;;;;;;20.33;7.82;;;6.40;99.90;;;;;;5075387;28;20103;-50
2022/01/23 08:02:14;;;;;;;16.58;8.10;;;6.40;99.90;;;;;;5075287;28;20028;-51
2022/01/23 08:04:40;;;;;;;16.35;7.93;;;6.50;99.90;;;;;;5075057;28;20028;-54
2022/01/23 08:07:11;;;;;;;14.50;7.53;;;6.40;99.90;;;;;;5075307;28;20025;-50
2022/01/23 08:09:36;;;;;;;;;;;6.40;99.90;;;;;;5076173;28;20085;-51
2022/01/23 08:12:03;;;;;;;18.05;7.03;;;6.50;99.90;;;;;;5076850;28;19991;-53
2022/01/23 08:14:28;;;;;;;15.98;6.93;;;6.50;99.90;;;;;;5075550;28;20089;-51
2022/01/23 08:16:54;;;;;;;13.93;7.03;;;6.60;99.90;;;;;;5075152;28;20033;-49
2022/01/23 08:19:19;;;;;;;14.73;7.05;;;6.60;99.90;;;;;;5075071;28;20024;-51
2022/01/23 08:21:45;;;;;;;17.52;6.78;;;6.60;99.90;;;;;;5075059;28;20389;-49
2022/01/23 08:24:11;;;;;;;15.75;6.47;;;6.60;99.90;;;;;;5075112;28;20112;-53
2022/01/23 08:26:37;;;;;;;11.80;6.70;;;6.60;99.90;;;;;;5056921;28;20481;-49
2022/01/23 08:29:04;;;;;;;17.23;6.68;;;6.70;99.90;;;;;;5075050;28;20035;-49
2022/01/23 08:31:29;;;;;;;12.73;5.82;;;6.70;99.90;;;;;;5075158;28;20457;-51
2022/01/23 08:33:55;;;;;;;12.43;5.97;;;6.70;99.90;;;;;;5066857;28;20033;-51
2022/01/23 08:36:20;;;;;;;11.48;5.63;;;6.70;99.90;;;;;;5059632;28;20378;-51
2022/01/23 08:38:46;;;;;;;9.07;5.22;;;6.70;99.90;;;;;;5067902;28;20108;-50
2022/01/23 08:43:37;;;;;;;11.85;5.22;;;6.80;99.90;;;;;;5061057;28;20051;-49
2022/01/23 08:46:04;;;;;;;7.88;5.20;;;6.80;99.90;;;;;;5073637;28;20496;-48
2022/01/23 08:48:30;;;;;;;10.30;6.57;;;6.80;99.90;;;;;;5070400;28;20107;-51
2022/01/23 08:50:55;;;;;;;17.23;5.38;;;6.80;99.90;;;;;;5064110;28;20052;-52
2022/01/23 08:53:21;;;;;;;8.32;5.32;;;6.80;99.90;;;;;;5062383;28;20051;-49
2022/01/23 08:55:47;;;;;;;10.77;5.30;;;6.80;99.90;;;;;;5053515;28;20028;-51
2022/01/23 08:58:14;;;;;;;13.88;5.32;;;6.80;99.90;;;;;;5057217;28;20036;-50
2022/01/23 09:00:40;;;;;;;10.85;6.57;;;6.80;99.90;;;;;;5073473;28;20028;-49
2022/01/23 09:03:05;;;;;;;10.48;6.28;;;6.80;99.90;;;;;;5072577;28;20033;-49
2022/01/23 09:05:31;;;;;;;11.13;5.28;;;6.70;99.90;;;;;;5062378;28;20389;-53
2022/01/23 09:07:57;;;;;;;13.10;6.28;;;6.80;99.90;;;;;;5065910;28;20055;-54
2022/01/23 09:10:28;;;;;;;9.98;5.32;;;6.90;99.90;;;;;;5061719;28;20040;-54
2022/01/23 09:13:06;;;;;;;12.52;5.80;;;6.90;99.90;;;;;;5070721;28;20494;-56
2022/01/23 09:15:31;;;;;;;11.45;6.40;;;6.90;99.90;;;;;;5058546;28;20028;-55
2022/01/23 09:17:57;;;;;;;14.20;6.65;;;6.90;99.90;;;;;;5066807;28;20028;-50
2022/01/23 09:20:23;;;;;;;11.60;6.07;;;7.00;99.90;;;;;;5042239;28;20055;-51
2022/01/23 09:22:48;;;;;;;17.48;6.30;;;7.00;99.90;;;;;;5063742;28;20021;-50
2022/01/23 09:25:14;;;;;;;11.50;5.63;;;7.10;99.90;;;;;;5064078;28;20013;-52
2022/01/23 09:27:40;;;;;;;11.13;5.43;;;7.00;99.90;;;;;;5064378;28;20432;-53
2022/01/23 09:30:16;;;;;;;11.77;5.53;;;7.00;99.90;;;;;;5053555;28;20024;-50
2022/01/23 09:32:43;;;;;;;8.20;5.03;;;7.00;99.90;;;;;;5052742;28;20480;-50
2022/01/23 09:35:09;;;;;;;13.07;5.55;;;7.00;99.90;;;;;;5053349;28;20028;-51
2022/01/23 09:37:35;;;;;;;9.98;5.65;;;7.10;99.90;;;;;;5053944;28;20025;-54
2022/01/23 09:40:01;;;;;;;8.52;4.47;;;7.10;99.90;;;;;;5035515;28;20083;-52
2022/01/23 09:42:33;;;;;;;10.63;5.32;;;7.10;99.90;;;;;;5052884;28;20056;-50
2022/01/23 09:45:05;;;;;;;10.68;5.13;;;7.10;99.90;;;;;;5052592;28;20032;-53
2022/01/23 09:47:32;;;;;;;10.88;5.05;;;7.20;99.90;;;;;;5052078;28;20017;-51
2022/01/23 09:50:00;;;;;;;9.93;4.80;;;7.10;99.90;;;;;;5061659;28;20037;-54
2022/01/23 09:52:29;;;;;;;9.95;4.88;;;7.10;99.90;;;;;;5070866;28;20024;-51
2022/01/23 09:54:57;;;;;;;9.63;5.07;;;7.20;99.90;;;;;;5073645;28;20379;-51
2022/01/23 09:57:28;;;;;;;10.10;4.38;;;7.20;99.90;;;;;;5069266;28;20451;-51
2022/01/23 09:59:54;;;;;;;7.20;4.63;;;7.30;99.90;;;;;;5054272;28;20100;-51
2022/01/23 10:02:21;;;;;;;12.13;4.72;;;7.40;99.90;;;;;;5053793;28;20132;-52
2022/01/23 10:04:46;;;;;;;8.73;4.68;;;7.50;99.90;;;;;;5058893;28;20111;-52
2022/01/23 10:07:13;;;;;;;11.60;4.70;;;7.60;99.90;;;;;;5062358;28;20079;-53
2022/01/23 10:09:38;;;;;;;9.50;4.40;;;7.60;99.90;;;;;;5060899;28;20032;-54
2022/01/23 10:12:06;;;;;;;10.15;4.80;;;7.70;99.90;;;;;;5037779;28;20033;-53
2022/01/23 10:14:32;;;;;;;21.67;5.28;;;7.60;99.90;;;;;;5053050;28;20370;-53
2022/01/23 10:16:57;;;;;;;9.73;4.70;;;7.60;99.90;;;;;;5053199;28;20043;-53
2022/01/23 10:19:23;;;;;;;8.57;4.53;;;7.60;99.90;;;;;;5035345;28;20124;-50
2022/01/23 10:21:49;;;;;;;6.85;4.90;;;7.60;99.90;;;;;;5053504;28;20029;-54
2022/01/23 10:24:19;;;;;;;11.93;4.70;;;7.60;99.90;;;;;;5060883;28;20028;-53
2022/01/23 10:26:51;;;;;;;7.25;4.45;;;7.60;99.90;;;;;;5064208;28;20082;-55
2022/01/23 10:29:28;;;;;;;10.25;4.63;;;7.60;99.90;;;;;;5074209;28;20025;-50
2022/01/23 10:32:11;;;;;;;9.05;4.18;;;7.60;99.90;;;;;;5077882;28;20028;-51
2022/01/23 10:34:55;;;;;;;7.60;4.50;;;7.70;99.90;;;;;;5076228;28;20024;-53
2022/01/23 10:37:40;;;;;;;11.18;4.13;;;7.70;99.90;;;;;;5077537;28;20052;-51
2022/01/23 10:40:29;;;;;;;12.63;4.13;;;7.70;99.90;;;;;;5077228;28;20074;-54
2022/01/23 10:46:37;;;;;;;9.52;4.40;;;7.80;99.90;;;;;;5077502;28;20021;-49
2022/01/23 10:48:51;;;;;;;7.75;4.20;;;7.80;99.90;;;;;;5078637;28;20024;-51
2022/01/23 10:51:24;;;;;;;7.57;3.60;;;7.90;99.90;;;;;;5073625;28;20039;-54
2022/01/23 10:54:01;;;;;;;5.60;3.72;;;7.90;99.90;;;;;;5077783;28;20421;-54
2022/01/23 10:56:29;;;;;;;5.50;3.63;;;8.00;99.90;;;;;;5076570;28;20109;-53
2022/01/23 10:59:07;;;;;;;12.07;3.97;;;8.00;99.90;;;;;;5068857;28;20086;-54
2022/01/23 11:01:33;;;;;;;12.50;4.45;;;8.10;99.90;;;;;;5065816;28;20108;-54
2022/01/23 11:04:06;;;;;;;8.23;4.43;;;8.00;99.90;;;;;;5066134;28;20028;-52
2022/01/23 11:06:32;;;;;;;6.57;3.40;;;8.10;99.90;;;;;;5066376;28;20102;-55
2022/01/23 11:09:15;;;;;;;11.70;4.47;;;8.10;99.90;;;;;;5046434;28;20540;-56
2022/01/23 11:11:45;;;;;;;8.52;3.78;;;8.10;99.90;;;;;;5064222;28;20027;-52
2022/01/23 11:20:01;;;;;;;6.25;4.20;;;8.20;99.90;;;;;;5036971;28;20508;-52
2022/01/23 11:22:29;;;;;;;7.15;4.20;;;8.30;99.90;;;;;;5055295;28;20037;-54
2022/01/23 11:25:10;;;;;;;4.20;3.30;;;8.20;99.90;;;;;;5058201;28;20066;-53
2022/01/23 11:27:39;;;;;;;7.60;3.35;;;8.20;99.90;;;;;;5048341;28;20397;-54
2022/01/23 11:30:09;;;;;;;6.93;3.33;;;8.20;99.90;;;;;;5075392;28;20029;-51
2022/01/23 11:32:38;;;;;;;8.50;4.47;;;8.30;99.90;;;;;;5069445;28;20037;-50
2022/01/23 11:35:09;;;;;;;7.22;3.80;;;8.30;99.90;;;;;;5060383;28;20036;-55
2022/01/23 11:37:39;;;;;;;9.60;4.05;;;8.30;99.90;;;;;;5058284;28;20424;-51
2022/01/23 11:40:20;;;;;;;10.40;4.80;;;8.40;99.90;;;;;;5064119;28;20113;-51
2022/01/23 11:53:55;;;;;;;5.93;3.40;;;8.40;99.90;;;;;;5067574;28;20054;-52
2022/01/23 11:56:37;;;;;;;6.72;3.67;;;8.40;99.90;;;;;;5074299;28;20457;-52
2022/01/23 11:59:23;;;;;;;6.10;3.80;;;8.50;99.90;;;;;;5070649;28;20083;-51
2022/01/23 12:02:09;;;;;;;7.70;3.78;;;8.60;99.90;;;;;;5054881;28;20052;-51
2022/01/23 12:04:35;;;;;;;7.97;4.30;;;8.50;99.90;;;;;;5055937;28;20013;-51
2022/01/23 12:07:14;;;;;;;11.65;3.97;;;8.60;99.90;;;;;;5055814;28;20359;-52
2022/01/23 12:09:43;;;;;;;7.40;3.97;;;8.50;99.90;;;;;;5055461;28;20539;-50
2022/01/23 12:12:38;;;;;;;7.32;4.00;;;8.60;99.90;;;;;;5055536;28;20037;-50
2022/01/23 12:18:19;;;;;;;10.70;4.05;;;8.60;99.90;;;;;;5055435;28;20108;-50
2022/01/23 12:20:47;;;;;;;5.72;4.38;;;8.60;99.90;;;;;;5055096;28;20555;-50
2022/01/23 12:23:14;;;;;;;7.55;4.05;;;8.60;99.90;;;;;;5055729;28;20040;-50
2022/01/23 12:25:46;;;;;;;6.00;3.80;;;8.60;99.90;;;;;;5055232;28;20381;-54
2022/01/23 12:28:29;;;;;;;8.25;3.90;;;8.50;99.90;;;;;;5037074;28;20033;-54
2022/01/23 12:31:20;;;;;;;8.95;3.60;;;8.50;99.90;;;;;;5054583;28;20044;-54
2022/01/23 12:33:50;;;;;;;6.45;3.63;;;8.60;99.90;;;;;;5055491;28;20114;-55
2022/01/23 12:36:15;;;;;;;9.48;3.80;;;8.60;99.90;;;;;;5054998;28;20103;-57
2022/01/23 12:38:46;;;;;;;5.28;3.40;;;8.70;99.90;;;;;;5055189;28;20056;-50
2022/01/23 12:41:22;;;;;;;7.90;3.35;;;8.60;99.90;;;;;;5054950;28;20359;-52
2022/01/23 12:43:47;;;;;;;6.70;3.00;;;8.60;99.90;;;;;;5054831;28;20059;-51
2022/01/23 12:46:40;;;;;;;6.47;3.00;;;8.60;99.90;;;;;;5055448;28;20025;-52
2022/01/23 12:49:51;;;;;;;5.45;3.40;;;8.60;99.90;;;;;;5074026;28;20484;-53
2022/01/23 12:52:19;;;;;;;3.92;2.75;;;8.70;99.90;;;;;;5038556;28;20068;-55
2022/01/23 12:54:51;;;;;;;7.40;3.15;;;8.70;99.90;;;;;;5063084;28;20021;-57
2022/01/23 12:57:38;;;;;;;7.97;3.60;;;8.70;99.90;;;;;;5063250;28;20024;-53
2022/01/23 13:00:20;;;;;;;7.32;3.22;;;8.70;99.90;;;;;;5064492;28;20446;-56
2022/01/23 13:02:50;;;;;;;6.18;3.03;;;8.80;99.90;;;;;;5046391;28;20019;-51
2022/01/23 13:05:17;;;;;;;7.22;3.67;;;8.70;99.90;;;;;;5064064;28;20021;-54
2022/01/23 13:10:48;;;;;;;6.30;2.97;;;8.80;99.90;;;;;;5074618;28;20021;-51
2022/01/23 13:13:33;;;;;;;7.50;2.70;;;8.80;99.90;;;;;;5067926;28;20555;-52
2022/01/23 13:18:49;;;;;;;6.90;3.03;;;8.60;99.90;;;;;;5017481;28;20049;-73
2022/01/23 13:32:29;;;;;;;7.38;3.50;;;8.70;99.90;;;;;;5028232;28;20036;-71
2022/01/23 13:35:01;;;;;;;5.93;2.92;;;8.70;99.90;;;;;;5012770;28;20196;-72
2022/01/23 13:37:30;;;;;;;5.35;3.15;;;8.70;99.90;;;;;;5022963;28;20029;-72
2022/01/23 13:40:02;;;;;;;6.78;2.70;;;8.70;99.90;;;;;;5024467;28;20055;-72
2022/01/23 13:42:54;;;;;;;5.75;3.08;;;8.70;99.90;;;;;;5023915;28;20022;-73
2022/01/23 14:00:12;;;;;;;7.85;3.67;;;8.60;99.90;;;;;;5013844;28;20033;-73
2022/01/23 14:02:36;;;;;;;5.07;3.60;;;8.60;99.90;;;;;;5016391;28;20057;-73
2022/01/23 14:05:27;;;;;;;5.88;3.50;;;8.50;99.90;;;;;;5017102;28;20018;-73
2022/01/23 14:08:00;;;;;;;7.05;3.78;;;8.50;99.90;;;;;;5014551;28;20117;-73
2022/01/23 14:10:33;;;;;;;6.85;4.10;;;8.50;99.90;;;;;;5013139;28;20033;-73
2022/01/23 14:13:15;;;;;;;5.25;3.92;;;8.60;99.90;;;;;;5013896;28;20480;-73
2022/01/23 14:15:49;;;;;;;5.22;4.00;;;8.60;99.90;;;;;;5014107;28;20022;-73
2022/01/23 14:18:21;;;;;;;9.20;3.92;;;8.50;99.90;;;;;;5014075;28;20088;-73
2022/01/23 14:21:00;;;;;;;6.15;4.10;;;8.60;99.90;;;;;;5014292;28;20101;-72
2022/01/23 14:23:25;;;;;;;9.90;4.75;;;8.50;99.90;;;;;;4997089;28;20022;-72
2022/01/23 14:25:54;;;;;;;8.65;4.65;;;8.50;99.90;;;;;;5014050;28;20387;-72
2022/01/23 14:28:23;;;;;;;9.55;4.75;;;8.40;99.90;;;;;;5013836;28;20026;-72
2022/01/23 14:30:55;;;;;;;8.95;5.03;;;8.50;99.90;;;;;;5012483;28;20032;-73
2022/01/23 14:33:35;;;;;;;10.73;5.15;;;8.40;99.90;;;;;;5014396;28;20022;-71
2022/01/23 14:36:21;;;;;;;9.88;4.85;;;8.40;99.90;;;;;;5004287;28;20116;-72
2022/01/23 14:38:58;;;;;;;9.68;5.95;;;8.40;99.90;;;;;;5026125;28;20029;-72
2022/01/23 14:41:27;;;;;;;7.93;5.22;;;8.30;99.90;;;;;;5024417;28;20025;-73
2022/01/23 14:43:52;;;;;;;9.35;4.88;;;8.40;99.90;;;;;;5021849;28;20033;-73
2022/01/23 14:46:18;;;;;;;8.45;5.00;;;8.40;99.90;;;;;;5032967;28;20393;-71
2022/01/23 14:48:48;;;;;;;8.70;4.97;;;8.30;99.90;;;;;;5016130;28;20052;-72
2022/01/23 14:51:18;;;;;;;12.27;5.13;;;8.30;99.90;;;;;;5017189;28;20034;-73
2022/01/23 14:53:44;;;;;;;9.23;4.70;;;8.30;99.90;;;;;;5036585;28;20025;-72
2022/01/23 14:56:12;;;;;;;12.00;4.85;;;8.30;99.90;;;;;;5037186;28;20025;-72
2022/01/23 14:58:38;;;;;;;13.02;5.35;;;8.30;99.90;;;;;;5017882;28;20026;-74
2022/01/23 15:01:08;;;;;;;12.63;5.82;;;8.30;99.90;;;;;;5034286;28;20017;-73
2022/01/23 15:03:34;;;;;;;7.68;4.90;;;8.30;99.90;;;;;;5034943;28;20025;-74
2022/01/23 15:06:00;;;;;;;9.90;5.25;;;8.30;99.90;;;;;;5034201;28;20029;-73
2022/01/23 15:08:27;;;;;;;13.68;5.38;;;8.20;99.90;;;;;;5032844;28;20132;-73
2022/01/23 15:10:55;;;;;;;11.45;4.97;;;8.30;99.90;;;;;;5025175;28;20406;-73
2022/01/23 15:13:25;;;;;;;7.38;4.93;;;8.20;99.90;;;;;;5022686;28;20429;-73
2022/01/23 15:15:52;;;;;;;9.60;5.05;;;8.20;99.90;;;;;;5024664;28;20025;-72
2022/01/23 15:18:18;;;;;;;9.90;5.30;;;8.20;99.90;;;;;;5030099;28;20467;-72
2022/01/23 15:20:44;;;;;;;8.38;4.90;;;8.20;99.90;;;;;;5020924;28;20021;-73
2022/01/23 15:23:11;;;;;;;8.25;4.82;;;8.20;99.90;;;;;;5026327;28;20046;-72
2022/01/23 15:25:37;;;;;;;5.93;4.60;;;8.20;99.90;;;;;;5024282;28;20041;-72
2022/01/23 15:28:04;;;;;;;10.30;4.95;;;8.30;99.90;;;;;;5023646;28;20140;-73
2022/01/23 15:30:31;;;;;;;7.05;4.25;;;8.30;99.90;;;;;;5027708;28;20025;-73
2022/01/23 15:32:57;;;;;;;7.07;4.95;;;8.20;99.90;;;;;;5026371;28;20046;-72
2022/01/23 15:35:25;;;;;;;5.53;4.53;;;8.20;99.90;;;;;;5025177;28;20205;-73
2022/01/23 15:37:52;;;;;;;7.15;4.25;;;8.20;99.90;;;;;;5023611;28;20028;-73
2022/01/23 15:40:19;;;;;;;6.93;4.15;;;8.20;99.90;;;;;;5023072;28;20041;-73
2022/01/23 15:42:46;;;;;;;5.35;3.65;;;8.20;99.90;;;;;;5010890;28;20033;-73
2022/01/23 15:45:12;;;;;;;4.80;3.75;;;8.20;99.90;;;;;;5038279;28;20085;-73
2022/01/23 15:47:39;;;;;;;12.15;7.45;;;8.20;99.90;;;;;;5037624;28;20343;-72
2022/01/23 15:50:07;;;;;;;10.95;6.40;;;8.10;99.90;;;;;;5036939;28;20513;-74
2022/01/23 15:52:32;;;;;;;9.07;4.13;;;8.10;99.90;;;;;;5041004;28;20167;-73
2022/01/23 15:54:58;;;;;;;7.03;4.60;;;8.00;99.90;;;;;;5037980;28;20483;-73
2022/01/23 15:57:24;;;;;;;9.13;3.97;;;8.10;99.90;;;;;;5037016;28;20112;-72
2022/01/23 15:59:50;;;;;;;9.27;4.05;;;8.10;99.90;;;;;;5036947;28;20022;-73
2022/01/23 16:02:15;;;;;;;6.07;3.58;;;8.10;99.90;;;;;;5038141;28;20103;-74
2022/01/23 16:04:41;;;;;;;6.53;4.45;;;8.10;99.90;;;;;;5039059;28;20422;-73
2022/01/23 16:07:11;;;;;;;7.72;4.28;;;8.00;99.90;;;;;;5039187;28;20104;-74
2022/01/23 16:09:37;;;;;;;7.15;3.70;;;8.10;99.90;;;;;;5027477;28;20033;-73
2022/01/23 16:12:03;;;;;;;8.98;5.00;;;8.10;99.90;;;;;;5044550;28;20025;-73
2022/01/23 16:14:28;;;;;;;6.13;3.58;;;8.10;99.90;;;;;;5037730;28;20026;-74